Time;durP1;ratioP1;P1;durP2;ratioP2;P2;SDS_P1;SDS_P2;PMS_P1;PMS_P2;Temp;Humidity;BMP_temperature;BMP_pressure;BME280_temperature;BME280_humidity;BME280_pressure;Samples;Min_cycle;Max_cycle;Signal;HPM_P1;HPM_P2
2023/07/31 00:02:19;;;;;;;16.52;4.45;;;;;;;22.23;98.72;100081.31;5135561;28;20046;-83
2023/07/31 00:04:45;;;;;;;12.90;5.80;;;;;;;22.28;98.80;100097.13;5134964;28;20035;-85
2023/07/31 00:07:11;;;;;;;11.38;4.30;;;;;;;21.90;98.90;100028.47;5118948;28;20577;-82
2023/07/31 00:09:36;;;;;;;13.48;4.40;;;;;;;22.05;99.25;100086.59;5112318;28;20023;-79
2023/07/31 00:12:02;;;;;;;15.48;5.22;;;;;;;22.14;99.89;100089.97;5113077;28;20038;-78
2023/07/31 00:14:27;;;;;;;12.48;4.78;;;;;;;22.13;99.79;100086.41;5114081;28;20453;-78
2023/07/31 00:16:53;;;;;;;10.70;5.20;;;;;;;21.96;100.00;100062.38;5114073;28;20035;-81
2023/07/31 00:19:18;;;;;;;10.55;5.05;;;;;;;22.07;100.00;100078.19;5112804;28;20034;-81
2023/07/31 00:21:44;;;;;;;17.27;4.72;;;;;;;22.09;100.00;100097.97;5111652;28;20028;-80
2023/07/31 00:24:09;;;;;;;14.10;4.25;;;;;;;22.03;100.00;100088.72;5111756;28;20086;-80
2023/07/31 00:26:35;;;;;;;15.00;4.97;;;;;;;22.15;99.65;100097.13;5111294;28;20023;-80
2023/07/31 00:29:00;;;;;;;18.05;5.32;;;;;;;22.03;98.65;100076.91;5110745;28;20115;-81
2023/07/31 00:31:26;;;;;;;17.00;4.65;;;;;;;22.00;98.77;100085.56;5111052;28;20023;-80
2023/07/31 00:33:51;;;;;;;8.00;4.38;;;;;;;21.84;99.42;100073.09;5111034;28;20027;-79
2023/07/31 00:36:17;;;;;;;18.88;5.45;;;;;;;22.00;100.00;100093.78;5111650;28;20035;-80
2023/07/31 00:38:43;;;;;;;23.88;4.45;;;;;;;21.81;100.00;100067.22;5112277;28;20102;-79
2023/07/31 00:41:09;;;;;;;11.27;4.93;;;;;;;21.92;100.00;100081.16;5110987;28;20739;-79
2023/07/31 00:43:34;;;;;;;15.65;5.75;;;;;;;21.98;100.00;100098.63;5119979;28;20863;-80
2023/07/31 00:46:00;;;;;;;13.82;5.05;;;;;;;22.03;100.00;100094.19;5121702;28;20042;-80
2023/07/31 00:48:26;;;;;;;11.85;5.38;;;;;;;22.05;100.00;100096.72;5113537;28;20027;-79
2023/07/31 00:50:51;;;;;;;6.40;4.30;;;;;;;21.96;99.97;100081.56;5110533;28;20483;-78
2023/07/31 00:53:17;;;;;;;14.45;4.22;;;;;;;21.86;100.00;100073.75;5110626;28;20073;-81
2023/07/31 00:55:44;;;;;;;11.40;4.25;;;;;;;21.80;100.00;100071.88;5110497;28;20116;-80
2023/07/31 00:58:09;;;;;;;17.00;6.00;;;;;;;21.75;100.00;100079.00;5109964;28;20059;-79
2023/07/31 01:00:35;;;;;;;23.35;5.03;;;;;;;21.88;100.00;100101.78;5109930;28;20048;-80
2023/07/31 01:03:01;;;;;;;13.32;5.40;;;;;;;21.81;100.00;100094.59;5110387;28;20020;-79
2023/07/31 01:06:04;;;;;;;15.73;4.80;;;;;;;21.92;100.00;100094.00;5110062;28;20038;-79
2023/07/31 01:08:36;;;;;;;7.03;3.83;;;;;;;21.92;100.00;100088.53;5008354;28;20053;-82
2023/07/31 01:11:12;;;;;;;15.40;5.38;;;;;;;21.80;100.00;100065.53;5008056;28;20053;-79
2023/07/31 01:13:38;;;;;;;9.48;4.88;;;;;;;21.82;100.00;100079.84;5008607;28;20034;-79
2023/07/31 01:16:04;;;;;;;15.13;4.75;;;;;;;21.81;100.00;100079.00;5011804;28;20030;-81
2023/07/31 01:18:29;;;;;;;20.85;5.20;;;;;;;21.95;100.00;100090.84;5011709;28;20108;-82
2023/07/31 01:21:08;;;;;;;26.20;7.13;;;;;;;21.91;100.00;100095.91;5012010;28;20053;-83
2023/07/31 01:24:08;;;;;;;19.88;4.97;;;;;;;21.85;100.00;100104.06;5011702;28;20050;-80
2023/07/31 01:26:38;;;;;;;8.45;4.60;;;;;;;21.58;100.00;100068.50;4953237;29;20035;-81
2023/07/31 01:29:27;;;;;;;13.90;4.82;;;;;;;21.71;100.00;100079.41;4953242;29;20093;-83
2023/07/31 01:31:55;;;;;;;9.38;4.50;;;;;;;21.78;100.00;100103.22;4953730;29;20039;-85
2023/07/31 01:34:22;;;;;;;13.45;5.45;;;;;;;21.68;100.00;100099.00;4954687;29;20106;-81
2023/07/31 01:36:47;;;;;;;15.65;4.88;;;;;;;21.71;100.00;100104.06;4954900;29;20585;-82
2023/07/31 01:39:15;;;;;;;10.65;4.43;;;;;;;21.80;100.00;100114.81;4956544;29;20051;-81
2023/07/31 01:41:40;;;;;;;17.85;5.28;;;;;;;21.58;100.00;100095.84;4959757;29;20415;-82
2023/07/31 01:44:06;;;;;;;10.65;4.85;;;;;;;21.84;100.00;100129.75;4940343;28;20047;-80
2023/07/31 01:46:31;;;;;;;10.38;5.25;;;;;;;21.76;100.00;100105.34;5031280;28;20026;-80
2023/07/31 01:48:57;;;;;;;10.55;4.88;;;;;;;21.80;100.00;100112.94;5031526;28;20033;-80
2023/07/31 01:51:22;;;;;;;9.40;4.43;;;;;;;21.54;100.00;100063.63;5030724;28;20033;-82
2023/07/31 01:53:48;;;;;;;15.13;4.25;;;;;;;21.82;100.00;100099.00;5030459;28;20033;-80
2023/07/31 01:56:13;;;;;;;9.57;4.75;;;;;;;21.79;100.00;100102.19;5031552;28;20037;-80
2023/07/31 01:58:39;;;;;;;11.80;5.20;;;;;;;21.79;100.00;100104.91;5030863;28;20037;-80
2023/07/31 02:01:04;;;;;;;40.25;6.13;;;;;;;21.81;100.00;100089.09;4997887;28;20567;-80
2023/07/31 02:03:29;;;;;;;10.30;4.75;;;;;;;21.87;100.00;100112.91;5057286;28;20452;-81
2023/07/31 02:05:56;;;;;;;12.13;4.60;;;;;;;21.81;100.00;100106.38;5113666;28;20027;-79
2023/07/31 02:08:22;;;;;;;19.17;4.93;;;;;;;21.77;100.00;100087.88;5114184;28;20050;-80
2023/07/31 02:10:47;;;;;;;11.48;5.53;;;;;;;21.97;100.00;100127.06;5113613;28;20494;-85
2023/07/31 02:13:13;;;;;;;14.45;4.85;;;;;;;21.89;100.00;100105.38;5113481;28;20105;-81
2023/07/31 02:15:38;;;;;;;13.85;5.25;;;;;;;21.88;100.00;100123.69;5113260;28;20088;-79
2023/07/31 02:18:03;;;;;;;12.95;6.35;;;;;;;21.86;100.00;100119.47;5113480;28;20700;-80
2023/07/31 02:20:29;;;;;;;6.35;4.70;;;;;;;21.87;100.00;100121.13;5113263;28;20423;-80
2023/07/31 02:22:54;;;;;;;11.20;5.50;;;;;;;21.76;100.00;100102.59;5113505;28;20039;-82
2023/07/31 02:25:20;;;;;;;14.15;6.03;;;;;;;21.85;100.00;100126.81;5112968;28;20114;-81
2023/07/31 02:27:45;;;;;;;9.25;5.78;;;;;;;21.84;100.00;100127.00;5113850;28;20030;-80
2023/07/31 02:30:11;;;;;;;12.23;5.55;;;;;;;21.81;100.00;100116.47;5115526;28;20064;-81
2023/07/31 02:32:36;;;;;;;18.70;5.57;;;;;;;21.79;100.00;100129.56;5114001;28;20023;-79
2023/07/31 02:35:02;;;;;;;14.27;5.68;;;;;;;21.76;100.00;100105.34;5120771;28;20111;-81
2023/07/31 02:37:28;;;;;;;10.70;5.20;;;;;;;21.81;100.00;100116.47;5124052;28;20034;-82
2023/07/31 02:39:54;;;;;;;33.95;6.78;;;;;;;21.75;100.00;100118.16;5116471;28;20038;-80
2023/07/31 02:42:19;;;;;;;19.25;6.50;;;;;;;21.61;100.00;100114.59;5112708;28;20019;-82
2023/07/31 02:44:45;;;;;;;11.48;5.00;;;;;;;21.46;100.00;100103.00;5112953;28;20028;-81
2023/07/31 02:47:10;;;;;;;13.52;5.00;;;;;;;21.43;100.00;100094.34;5112493;28;20016;-83
2023/07/31 02:49:36;;;;;;;9.00;5.15;;;;;;;21.64;100.00;100122.38;5113006;28;20023;-79
2023/07/31 02:52:01;;;;;;;9.05;5.43;;;;;;;21.67;100.00;100105.56;5113615;28;20102;-81
2023/07/31 02:54:27;;;;;;;12.65;4.97;;;;;;;21.67;100.00;100113.75;5113329;28;20019;-80
2023/07/31 02:56:52;;;;;;;10.20;3.75;;;;;;;21.65;100.00;100115.84;5112803;28;20414;-82
2023/07/31 02:59:18;;;;;;;16.98;5.03;;;;;;;21.75;100.00;100128.28;5112418;28;20016;-80
2023/07/31 03:01:44;;;;;;;10.75;4.70;;;;;;;21.69;100.00;100119.84;5112488;28;20019;-80
2023/07/31 03:04:09;;;;;;;16.73;4.65;;;;;;;21.71;100.00;100123.22;5112747;28;20034;-80
2023/07/31 03:06:35;;;;;;;11.38;4.93;;;;;;;21.84;100.00;100135.22;5111910;28;20055;-79
2023/07/31 03:09:00;;;;;;;7.80;4.80;;;;;;;21.89;100.00;100130.03;5112438;28;20031;-81
2023/07/31 03:11:26;;;;;;;21.60;4.95;;;;;;;21.83;100.00;100111.66;5112129;28;20024;-81
2023/07/31 03:13:52;;;;;;;14.23;5.00;;;;;;;22.04;99.29;100134.25;5112128;28;20086;-80
2023/07/31 03:16:17;;;;;;;13.63;5.03;;;;;;;21.71;98.60;100078.59;5111811;28;20028;-80
2023/07/31 03:18:42;;;;;;;20.25;6.55;;;;;;;21.84;97.69;100110.59;5112207;28;20035;-81
2023/07/31 03:21:08;;;;;;;20.65;5.85;;;;;;;21.86;97.27;100113.97;5113110;28;20019;-79
2023/07/31 03:23:33;;;;;;;25.10;5.60;;;;;;;21.81;97.15;100105.53;5112093;28;20499;-83
2023/07/31 03:26:00;;;;;;;10.25;4.32;;;;;;;21.95;97.24;100118.22;5093090;28;20027;-81
2023/07/31 03:28:26;;;;;;;26.27;4.82;;;;;;;21.78;97.69;100090.38;5111820;28;20110;-79
2023/07/31 03:30:52;;;;;;;27.55;5.45;;;;;;;21.93;97.49;100117.56;5114324;28;20062;-80
2023/07/31 03:33:17;;;;;;;26.30;6.80;;;;;;;22.01;96.85;100117.38;5113413;28;20034;-81
2023/07/31 03:35:43;;;;;;;17.92;5.95;;;;;;;22.08;97.12;100123.69;5093404;28;20024;-81
2023/07/31 03:38:08;;;;;;;24.00;7.65;;;;;;;21.97;97.23;100096.94;5111149;28;20027;-88
2023/07/31 03:40:34;;;;;;;20.27;6.35;;;;;;;22.12;97.40;100122.22;5112129;28;20376;-80
2023/07/31 03:42:59;;;;;;;39.55;7.65;;;;;;;22.03;97.47;100109.78;5111128;28;20019;-81
2023/07/31 03:45:25;;;;;;;13.75;5.75;;;;;;;22.22;97.73;100136.34;5111361;28;20477;-80
2023/07/31 03:47:50;;;;;;;17.85;6.65;;;;;;;22.25;97.15;100130.44;5111428;28;20027;-82
2023/07/31 03:50:16;;;;;;;35.67;7.07;;;;;;;22.25;96.98;100124.94;5110898;28;20024;-80
2023/07/31 03:52:41;;;;;;;37.75;8.23;;;;;;;22.26;96.89;100118.44;5111332;28;20033;-80
2023/07/31 03:55:07;;;;;;;25.63;7.70;;;;;;;22.30;96.92;100127.88;5111082;28;20027;-80
2023/07/31 03:57:32;;;;;;;18.05;6.03;;;;;;;22.24;97.18;100115.88;5111578;28;20458;-82
2023/07/31 03:59:58;;;;;;;15.82;4.63;;;;;;;22.36;96.75;100132.50;5110779;28;20020;-79
2023/07/31 04:02:24;;;;;;;22.92;5.88;;;;;;;22.43;96.41;100136.09;5111100;28;20028;-82
2023/07/31 04:04:49;;;;;;;77.32;8.32;;;;;;;22.49;95.50;100129.75;5110342;28;20172;-81
2023/07/31 04:07:15;;;;;;;40.22;7.53;;;;;;;22.53;94.95;100133.75;5110166;28;20163;-84
2023/07/31 04:09:40;;;;;;;28.63;7.07;;;;;;;22.62;94.44;100135.22;5092347;28;20113;-82
2023/07/31 04:12:06;;;;;;;39.97;9.55;;;;;;;22.54;94.49;100113.50;5110731;28;20479;-80
2023/07/31 04:14:31;;;;;;;29.42;8.90;;;;;;;22.50;94.19;100105.94;5111131;28;20043;-81
2023/07/31 04:16:57;;;;;;;55.22;10.45;;;;;;;22.59;93.93;100110.97;5110884;28;20032;-80
2023/07/31 04:19:24;;;;;;;31.52;10.07;;;;;;;22.75;93.71;100118.72;5094031;28;20111;-80
2023/07/31 04:21:49;;;;;;;36.25;9.85;;;;;;;22.58;93.45;100092.00;5075563;28;20043;-81
2023/07/31 04:24:15;;;;;;;58.35;11.73;;;;;;;22.82;93.32;100131.59;5092897;28;20522;-81
2023/07/31 04:26:40;;;;;;;43.90;11.52;;;;;;;22.85;93.19;100125.66;5118035;28;20111;-81
2023/07/31 04:29:05;;;;;;;72.45;13.15;;;;;;;22.84;93.02;100115.78;5105448;28;20119;-82
2023/07/31 04:31:31;;;;;;;60.42;12.57;;;;;;;22.92;91.75;100118.25;5115366;28;20106;-87
2023/07/31 04:33:56;;;;;;;75.28;12.65;;;;;;;22.72;92.32;100094.50;5111478;28;20034;-81
2023/07/31 04:36:22;;;;;;;67.82;13.50;;;;;;;22.76;93.20;100106.72;5110463;28;20030;-80
2023/07/31 04:38:47;;;;;;;28.08;9.25;;;;;;;22.77;93.69;100116.66;5113115;28;20056;-89
2023/07/31 04:41:12;;;;;;;53.63;11.43;;;;;;;22.49;93.13;100083.16;5112253;28;20729;-90
2023/07/31 04:43:39;;;;;;;40.53;9.90;;;;;;;22.89;93.10;100144.22;5112799;28;20479;-88
2023/07/31 04:46:05;;;;;;;42.88;10.98;;;;;;;22.92;92.80;100148.44;5092488;28;20019;-82
2023/07/31 04:48:30;;;;;;;23.90;10.00;;;;;;;22.89;92.95;100140.63;5109530;28;20026;-79
2023/07/31 04:50:56;;;;;;;29.67;8.82;;;;;;;22.87;92.67;100140.03;5093241;28;20053;-85
2023/07/31 04:53:21;;;;;;;20.30;7.82;;;;;;;22.72;92.29;100116.44;5112072;28;20027;-88
2023/07/31 04:55:47;;;;;;;34.67;9.27;;;;;;;22.88;92.82;100141.69;5091580;28;20035;-79
2023/07/31 04:58:12;;;;;;;26.67;8.82;;;;;;;22.97;92.43;100152.22;5110487;28;20028;-78
2023/07/31 05:00:37;;;;;;;29.58;9.32;;;;;;;22.90;92.17;100142.34;5110186;28;20095;-79
2023/07/31 05:03:03;;;;;;;29.15;9.82;;;;;;;23.01;92.48;100149.88;5112483;28;20084;-79
2023/07/31 05:05:28;;;;;;;24.52;8.10;;;;;;;23.09;92.22;100160.59;5111351;28;20083;-86
2023/07/31 05:07:54;;;;;;;25.15;7.63;;;;;;;23.16;91.68;100154.03;5092942;28;20028;-86
2023/07/31 05:10:19;;;;;;;26.00;6.75;;;;;;;23.23;90.18;100146.63;5111376;28;20024;-83
2023/07/31 05:12:45;;;;;;;46.03;7.80;;;;;;;23.24;89.90;100134.56;5110081;28;20032;-82
2023/07/31 05:15:10;;;;;;;27.67;7.00;;;;;;;23.28;90.08;100138.56;5112528;28;20023;-82
2023/07/31 05:17:36;;;;;;;22.52;5.40;;;;;;;23.27;88.90;100119.59;5112402;28;20110;-83
2023/07/31 05:20:01;;;;;;;28.30;4.32;;;;;;;23.68;86.73;100163.91;5094500;28;20027;-82
2023/07/31 05:22:27;;;;;;;42.28;6.93;;;;;;;23.73;85.94;100155.84;5113991;28;20028;-82
2023/07/31 05:24:54;;;;;;;31.30;5.05;;;;;;;23.88;84.69;100171.19;5121402;28;20052;-84
2023/07/31 05:27:19;;;;;;;16.63;5.60;;;;;;;23.84;84.04;100149.66;5100728;28;20047;-84
2023/07/31 05:29:45;;;;;;;19.40;5.45;;;;;;;24.01;83.56;100166.44;5116128;28;20028;-80
2023/07/31 05:32:10;;;;;;;17.98;6.07;;;;;;;23.87;82.91;100153.88;5110571;28;20039;-79
2023/07/31 05:34:36;;;;;;;25.05;6.43;;;;;;;24.05;82.85;100166.81;5110269;28;20035;-78
2023/07/31 05:37:01;;;;;;;15.43;6.30;;;;;;;23.99;81.85;100168.56;5110048;28;20108;-78
2023/07/31 05:39:27;;;;;;;16.55;5.20;;;;;;;24.03;81.54;100168.97;5110176;28;20031;-78
2023/07/31 05:41:52;;;;;;;15.07;4.88;;;;;;;24.20;82.40;100170.97;5109977;28;20035;-77
2023/07/31 05:44:17;;;;;;;21.35;6.35;;;;;;;24.17;81.44;100159.56;5110053;28;20088;-77
2023/07/31 05:46:43;;;;;;;26.67;7.38;;;;;;;24.35;82.60;100178.84;5110301;28;20024;-79
2023/07/31 05:49:08;;;;;;;23.23;7.18;;;;;;;24.23;81.36;100148.53;5110190;28;20045;-80
2023/07/31 05:51:34;;;;;;;66.53;10.05;;;;;;;24.41;80.95;100177.97;5090746;28;20035;-79
2023/07/31 05:53:59;;;;;;;21.80;8.10;;;;;;;24.34;79.91;100155.22;5109582;28;20023;-79
2023/07/31 05:56:26;;;;;;;20.67;8.90;;;;;;;24.54;80.30;100177.84;5109482;28;20106;-81
2023/07/31 05:58:52;;;;;;;11.48;7.68;;;;;;;24.59;79.01;100180.75;5109261;28;20060;-78
2023/07/31 06:01:17;;;;;;;45.20;16.80;;;;;;;24.68;78.49;100176.63;5111048;28;20483;-79
2023/07/31 06:03:43;;;;;;;67.68;14.38;;;;;;;24.72;78.57;100175.13;5113788;28;20031;-79
2023/07/31 06:06:08;;;;;;;46.65;14.07;;;;;;;24.76;78.43;100181.84;5113314;28;20118;-80
2023/07/31 06:08:34;;;;;;;29.90;7.82;;;;;;;24.79;78.30;100181.41;5113228;28;20023;-77
2023/07/31 06:10:59;;;;;;;42.08;8.52;;;;;;;24.78;76.66;100174.19;5095172;28;20084;-77
2023/07/31 06:13:25;;;;;;;39.60;12.65;;;;;;;24.82;76.21;100169.97;5112882;28;20066;-78
2023/07/31 06:15:50;;;;;;;23.23;8.63;;;;;;;24.98;76.42;100178.69;5112344;28;20057;-76
2023/07/31 06:18:16;;;;;;;32.83;13.30;;;;;;;25.00;74.92;100176.53;5117584;28;20038;-84
2023/07/31 06:20:42;;;;;;;33.88;13.80;;;;;;;24.99;75.05;100155.59;5124311;28;20024;-76
2023/07/31 06:23:07;;;;;;;27.27;9.10;;;;;;;25.26;74.64;100188.06;5117951;28;20539;-78
2023/07/31 06:25:33;;;;;;;17.73;7.07;;;;;;;25.26;73.94;100165.19;5112558;28;20024;-77
2023/07/31 06:27:58;;;;;;;17.83;8.43;;;;;;;25.42;73.48;100187.44;5112376;28;20027;-78
2023/07/31 06:30:24;;;;;;;16.83;8.52;;;;;;;25.44;74.54;100178.97;5113139;28;20024;-77
2023/07/31 06:32:49;;;;;;;31.77;9.63;;;;;;;25.60;73.15;100192.09;5112875;28;20062;-79
2023/07/31 06:35:15;;;;;;;33.65;8.20;;;;;;;25.48;72.60;100174.66;5112996;28;20391;-79
2023/07/31 06:37:43;;;;;;;30.67;8.05;;;;;;;25.40;71.98;100162.06;5112910;28;20036;-77
2023/07/31 06:40:09;;;;;;;23.58;9.35;;;;;;;25.60;71.70;100196.75;5118206;28;20043;-78
2023/07/31 06:42:35;;;;;;;16.60;9.50;;;;;;;25.59;73.00;100190.44;5123759;28;20039;-77
2023/07/31 06:45:01;;;;;;;30.30;9.85;;;;;;;25.59;72.17;100186.84;5119194;28;20395;-78
2023/07/31 06:47:27;;;;;;;29.27;9.48;;;;;;;25.47;70.86;100172.13;5113149;28;20028;-75
2023/07/31 06:49:52;;;;;;;17.17;9.40;;;;;;;25.62;72.91;100200.97;5113731;28;20222;-78
2023/07/31 06:52:18;;;;;;;21.23;10.35;;;;;;;25.48;72.65;100195.81;5129659;28;20035;-78
2023/07/31 06:54:43;;;;;;;21.65;10.35;;;;;;;25.47;72.73;100197.78;5135617;28;20024;-81
2023/07/31 06:57:08;;;;;;;26.80;10.88;;;;;;;25.48;73.63;100191.16;5129735;28;20028;-79
2023/07/31 06:59:34;;;;;;;17.48;10.07;;;;;;;25.52;72.89;100197.09;5115760;28;20028;-78
2023/07/31 07:01:59;;;;;;;28.45;9.05;;;;;;;25.35;72.38;100174.84;5113036;28;20509;-80
2023/07/31 07:04:25;;;;;;;24.50;9.38;;;;;;;25.57;72.75;100200.81;5113569;28;20061;-78
2023/07/31 07:06:51;;;;;;;14.63;8.02;;;;;;;25.47;71.70;100177.66;5113791;28;20020;-76
2023/07/31 07:09:16;;;;;;;17.67;7.35;;;;;;;25.36;70.45;100151.72;5113807;28;20024;-79
2023/07/31 07:11:42;;;;;;;21.83;8.20;;;;;;;25.72;69.93;100203.16;5111748;28;20027;-77
2023/07/31 07:14:07;;;;;;;19.73;8.18;;;;;;;25.75;69.37;100198.03;5097852;28;20042;-76
2023/07/31 07:16:32;;;;;;;44.20;12.32;;;;;;;25.86;68.84;100200.00;5120495;28;20053;-80
2023/07/31 07:18:58;;;;;;;20.05;8.38;;;;;;;25.97;69.65;100193.66;5115985;28;20028;-77
2023/07/31 07:21:23;;;;;;;22.38;7.05;;;;;;;26.01;68.35;100183.00;5111613;28;20026;-76
2023/07/31 07:23:49;;;;;;;11.40;6.10;;;;;;;26.08;67.26;100181.00;5111031;28;20141;-77
2023/07/31 07:26:14;;;;;;;12.13;6.30;;;;;;;26.17;66.48;100187.88;5110935;28;20034;-78
2023/07/31 07:28:40;;;;;;;16.02;7.53;;;;;;;26.15;66.97;100179.00;5092552;28;20035;-77
2023/07/31 07:31:05;;;;;;;14.57;6.93;;;;;;;26.40;66.76;100192.56;5110904;28;20024;-75
2023/07/31 07:33:30;;;;;;;41.78;9.02;;;;;;;26.36;66.80;100172.09;5110546;28;20027;-77
2023/07/31 07:36:00;;;;;;;21.75;7.15;;;;;;;26.50;66.16;100184.56;5110881;28;20119;-79
2023/07/31 07:38:26;;;;;;;18.65;6.93;;;;;;;26.48;65.39;100181.22;5110654;28;20403;-78
2023/07/31 07:40:53;;;;;;;36.22;8.60;;;;;;;26.54;64.60;100191.28;5110601;28;20023;-78
2023/07/31 07:43:18;;;;;;;13.60;6.55;;;;;;;26.55;64.15;100173.63;5110776;28;20028;-76
2023/07/31 07:45:44;;;;;;;11.57;6.07;;;;;;;26.69;64.03;100194.41;5091925;28;20027;-77
2023/07/31 07:48:09;;;;;;;71.47;18.48;;;;;;;26.80;65.66;100187.22;5110674;28;20024;-77
2023/07/31 07:50:35;;;;;;;27.48;8.55;;;;;;;26.86;64.42;100184.34;5110140;28;20020;-77
2023/07/31 07:53:00;;;;;;;25.63;8.13;;;;;;;27.02;63.35;100180.84;5110320;28;20094;-80
2023/07/31 07:55:26;;;;;;;10.95;6.82;;;;;;;27.07;62.32;100180.09;5109844;28;20046;-76
2023/07/31 07:57:51;;;;;;;12.43;5.22;;;;;;;26.83;63.11;100145.34;5110296;28;20035;-76
2023/07/31 08:00:17;;;;;;;10.00;5.43;;;;;;;26.92;61.33;100171.47;5109845;28;20394;-78
2023/07/31 08:02:43;;;;;;;7.32;5.40;;;;;;;27.01;62.02;100175.53;5091668;28;20395;-76
2023/07/31 08:05:08;;;;;;;12.23;4.97;;;;;;;27.00;61.50;100177.47;5110046;28;20478;-78
2023/07/31 08:07:34;;;;;;;7.13;5.32;;;;;;;27.11;61.49;100192.34;5109878;28;20024;-78
2023/07/31 08:09:59;;;;;;;16.50;9.73;;;;;;;27.19;60.92;100183.66;5114023;28;20023;-81
2023/07/31 08:12:25;;;;;;;13.80;5.32;;;;;;;27.27;59.13;100201.78;5121049;28;20020;-80
2023/07/31 08:14:51;;;;;;;17.88;5.85;;;;;;;27.29;58.87;100183.88;5112528;28;20039;-77
2023/07/31 08:17:16;;;;;;;9.95;4.07;;;;;;;27.36;58.77;100200.31;5109934;28;20028;-79
2023/07/31 08:19:42;;;;;;;6.15;4.55;;;;;;;27.35;57.67;100187.59;5110161;28;20030;-76
2023/07/31 08:22:07;;;;;;;18.65;5.35;;;;;;;27.43;57.70;100184.50;5109908;28;20038;-79
2023/07/31 08:24:33;;;;;;;6.97;4.90;;;;;;;27.34;56.80;100170.19;5109541;28;20054;-80
2023/07/31 08:26:58;;;;;;;16.10;4.85;;;;;;;27.62;56.85;100177.66;5109392;28;20031;-80
2023/07/31 08:29:25;;;;;;;11.35;4.82;;;;;;;27.82;56.15;100178.06;5110177;28;20126;-81
2023/07/31 08:31:50;;;;;;;8.13;4.95;;;;;;;28.00;55.98;100188.91;5109845;28;20071;-80
2023/07/31 08:34:16;;;;;;;18.40;4.72;;;;;;;28.16;57.31;100190.06;5109464;28;20035;-83
2023/07/31 08:36:41;;;;;;;8.32;4.50;;;;;;;28.27;55.42;100188.28;5109894;28;20024;-80
2023/07/31 08:39:06;;;;;;;30.67;5.50;;;;;;;28.44;54.80;100194.69;5109520;28;20099;-81
2023/07/31 08:41:38;;;;;;;7.00;4.38;;;;;;;28.04;54.67;100109.06;5109268;28;20035;-83
2023/07/31 08:44:04;;;;;;;5.67;4.07;;;;;;;28.48;54.70;100182.00;5108879;28;20031;-81
2023/07/31 08:46:30;;;;;;;15.18;4.20;;;;;;;28.56;54.47;100187.13;5090985;28;20034;-81
2023/07/31 08:48:56;;;;;;;24.40;6.97;;;;;;;28.47;55.34;100194.16;5109332;28;20028;-81
2023/07/31 08:51:21;;;;;;;12.88;5.97;;;;;;;28.38;55.48;100198.41;5108894;28;20448;-82
2023/07/31 08:53:47;;;;;;;38.53;7.88;;;;;;;28.44;55.59;100197.44;5108805;28;20386;-81
2023/07/31 08:56:14;;;;;;;34.38;7.32;;;;;;;28.38;55.21;100188.19;5108925;28;20019;-81
2023/07/31 08:58:40;;;;;;;13.45;4.75;;;;;;;28.18;54.35;100171.28;5109183;28;20027;-81
2023/07/31 09:01:07;;;;;;;14.68;5.32;;;;;;;28.14;55.13;100183.06;5109651;28;20024;-80
2023/07/31 09:03:35;;;;;;;11.65;5.82;;;;;;;28.10;55.93;100197.41;5109536;28;20032;-80
2023/07/31 09:06:03;;;;;;;16.85;4.95;;;;;;;28.09;55.69;100211.50;5114607;28;20052;-81
2023/07/31 09:08:30;;;;;;;58.00;10.35;;;;;;;27.90;55.85;100185.94;5122912;28;20030;-79
2023/07/31 09:11:00;;;;;;;36.92;7.45;;;;;;;28.03;56.13;100210.53;5116570;28;20495;-82
2023/07/31 09:13:28;;;;;;;42.75;6.53;;;;;;;28.03;55.78;100206.94;5110105;28;20483;-82
2023/07/31 09:15:54;;;;;;;26.95;5.68;;;;;;;28.02;55.83;100211.63;5109668;28;20102;-82
2023/07/31 09:18:22;;;;;;;16.73;4.82;;;;;;;28.04;55.34;100209.47;5108819;28;20582;-81
2023/07/31 09:21:07;;;;;;;15.35;4.82;;;;;;;28.07;54.94;100203.44;5108617;28;20039;-81
2023/07/31 09:23:43;;;;;;;8.18;4.68;;;;;;;28.09;55.74;100217.03;5056189;28;20047;-81
2023/07/31 09:26:09;;;;;;;6.90;4.63;;;;;;;27.98;55.64;100215.94;5109186;28;20106;-81
2023/07/31 09:28:35;;;;;;;6.60;4.18;;;;;;;28.04;55.25;100228.81;5109253;28;20545;-80
2023/07/31 09:31:00;;;;;;;23.02;6.45;;;;;;;27.96;55.96;100218.13;5108898;28;20145;-81
2023/07/31 09:33:26;;;;;;;12.07;5.25;;;;;;;27.93;56.37;100226.94;5109081;28;20446;-83
2023/07/31 09:35:51;;;;;;;9.55;4.35;;;;;;;28.01;56.21;100214.63;5111575;28;20019;-81
2023/07/31 09:38:17;;;;;;;15.63;5.43;;;;;;;28.22;55.90;100229.69;5113983;28;20028;-82
2023/07/31 09:40:45;;;;;;;9.90;5.25;;;;;;;28.40;55.55;100226.69;5112798;28;20028;-82
2023/07/31 09:43:18;;;;;;;7.35;4.70;;;;;;;28.71;55.16;100209.53;5112889;28;20494;-83
2023/07/31 09:45:45;;;;;;;14.27;5.00;;;;;;;29.01;53.53;100215.50;5112788;28;20024;-82
2023/07/31 09:48:12;;;;;;;14.70;4.80;;;;;;;29.30;51.58;100212.59;5094537;28;20574;-83
2023/07/31 09:50:39;;;;;;;17.15;4.45;;;;;;;29.45;51.79;100187.84;5094486;28;20019;-80
2023/07/31 09:53:08;;;;;;;8.20;3.95;;;;;;;29.88;50.75;100204.44;5112640;28;20491;-82
2023/07/31 09:55:35;;;;;;;16.88;4.57;;;;;;;30.14;50.62;100208.31;5112605;28;20109;-81
2023/07/31 09:58:07;;;;;;;8.57;3.83;;;;;;;30.31;49.11;100202.63;5112604;28;20028;-83
2023/07/31 10:00:33;;;;;;;7.72;4.18;;;;;;;30.40;48.75;100201.91;5112389;28;20023;-82
2023/07/31 10:03:01;;;;;;;17.33;4.72;;;;;;;30.48;47.62;100197.81;5122193;28;20027;-83
2023/07/31 10:05:35;;;;;;;8.02;3.55;;;;;;;30.48;47.77;100186.72;5127643;28;20630;-82
2023/07/31 10:08:00;;;;;;;5.55;4.00;;;;;;;30.72;47.68;100193.56;5114267;28;20555;-82
2023/07/31 10:10:27;;;;;;;19.30;3.72;;;;;;;30.63;46.14;100178.50;5112501;28;20028;-82
2023/07/31 10:12:53;;;;;;;3.28;2.97;;;;;;;30.63;45.96;100193.22;5112792;28;20127;-81
2023/07/31 10:15:20;;;;;;;8.85;3.33;;;;;;;30.32;46.60;100140.47;5112079;28;20027;-82
2023/07/31 10:17:50;;;;;;;5.97;3.38;;;;;;;30.65;46.18;100188.22;5093830;28;20059;-82
2023/07/31 10:20:16;;;;;;;5.82;3.83;;;;;;;30.68;45.65;100190.47;5111793;28;20078;-80
2023/07/31 10:22:43;;;;;;;13.75;3.67;;;;;;;30.71;45.97;100180.78;5093348;28;20026;-80
2023/07/31 10:25:09;;;;;;;10.52;3.72;;;;;;;30.73;45.56;100189.69;5111966;28;20035;-81
2023/07/31 10:27:41;;;;;;;9.52;4.13;;;;;;;30.64;46.50;100185.75;5111792;28;20057;-80
2023/07/31 10:30:09;;;;;;;;;;;;;;;30.81;45.97;100205.84;5112185;28;20110;-82
2023/07/31 10:32:35;;;;;;;15.93;3.40;;;;;;;30.77;46.02;100185.25;5111911;28;19931;-81
2023/07/31 10:35:03;;;;;;;9.48;3.67;;;;;;;30.81;45.72;100191.97;5111813;28;20028;-80
2023/07/31 10:37:35;;;;;;;5.45;3.22;;;;;;;30.86;45.82;100202.25;5110862;28;20027;-86
2023/07/31 10:40:20;;;;;;;4.40;3.70;;;;;;;30.75;45.51;100168.03;5112789;28;20067;-85
2023/07/31 10:42:52;;;;;;;9.77;4.95;;;;;;;30.91;45.64;100202.28;5114704;28;20023;-84
2023/07/31 10:45:36;;;;;;;5.57;3.80;;;;;;;30.64;45.15;100169.09;5113309;28;20059;-86
2023/07/31 10:48:16;;;;;;;4.50;3.80;;;;;;;30.74;45.12;100183.00;5115523;28;20038;-85
2023/07/31 10:50:55;;;;;;;4.35;3.65;;;;;;;30.95;45.54;100192.31;5111922;28;20039;-78
2023/07/31 10:53:25;;;;;;;5.40;3.65;;;;;;;30.93;44.72;100173.13;5112984;28;20035;-82
2023/07/31 10:55:54;;;;;;;4.82;3.78;;;;;;;31.07;44.60;100190.22;5112048;28;20097;-81
2023/07/31 10:58:21;;;;;;;8.75;4.32;;;;;;;30.91;44.83;100180.06;5116660;28;20079;-83
2023/07/31 11:00:46;;;;;;;10.55;3.88;;;;;;;30.98;45.66;100189.84;5120380;28;20485;-79
2023/07/31 11:03:20;;;;;;;7.75;3.47;;;;;;;30.89;44.71;100160.88;5116540;28;20031;-81
2023/07/31 11:05:58;;;;;;;7.95;3.28;;;;;;;30.96;45.07;100180.97;5110799;28;20023;-79
2023/07/31 11:08:25;;;;;;;5.03;3.50;;;;;;;30.99;45.33;100194.31;5110932;28;20036;-81
2023/07/31 11:11:08;;;;;;;5.20;3.53;;;;;;;30.98;45.07;100189.00;5111600;28;20023;-84
2023/07/31 11:13:45;;;;;;;8.40;4.82;;;;;;;30.75;45.87;100176.38;5110820;28;20092;-82
2023/07/31 11:16:12;;;;;;;9.25;4.88;;;;;;;30.81;45.61;100186.41;5111587;28;20035;-81